Time;durP1;ratioP1;P1;durP2;ratioP2;P2;SDS_P1;SDS_P2;PMS_P1;PMS_P2;Temp;Humidity;BMP_temperature;BMP_pressure;BME280_temperature;BME280_humidity;BME280_pressure;Samples;Min_cycle;Max_cycle;Signal;HPM_P1;HPM_P2
2023/04/08 00:00:30;;;;;;;41.33;24.63;;;10.60;98.10;;;;;;5093664;28;20198;-70
2023/04/08 00:02:59;;;;;;;32.50;21.67;;;10.50;98.40;;;;;;5093474;28;20198;-70
2023/04/08 00:05:27;;;;;;;33.63;22.90;;;10.50;98.90;;;;;;5093534;28;20195;-70
2023/04/08 00:07:57;;;;;;;34.30;21.77;;;10.50;99.20;;;;;;5091802;28;20282;-72
2023/04/08 00:10:26;;;;;;;35.93;20.60;;;10.40;99.60;;;;;;5092248;28;20204;-70
2023/04/08 00:12:55;;;;;;;33.73;21.90;;;10.30;99.90;;;;;;5093009;28;20206;-72
2023/04/08 00:15:23;;;;;;;36.97;19.97;;;10.30;99.90;;;;;;5093169;28;20204;-70
2023/04/08 00:17:53;;;;;;;32.67;19.37;;;10.40;99.90;;;;;;5093065;28;20207;-70
2023/04/08 00:20:22;;;;;;;31.60;19.93;;;10.30;99.90;;;;;;5093029;28;20195;-71
2023/04/08 00:22:51;;;;;;;29.20;18.23;;;10.40;99.90;;;;;;5092963;28;20589;-70
2023/04/08 00:25:21;;;;;;;30.53;20.97;;;10.40;99.90;;;;;;5092796;28;20208;-71
2023/04/08 00:27:52;;;;;;;30.27;19.67;;;10.50;99.90;;;;;;5093033;28;20275;-69
2023/04/08 00:30:21;;;;;;;36.10;20.43;;;10.50;99.90;;;;;;5092748;28;20554;-71
2023/04/08 00:32:49;;;;;;;34.30;21.40;;;10.50;99.90;;;;;;5092803;28;20203;-71
2023/04/08 00:35:18;;;;;;;28.90;19.23;;;10.50;99.90;;;;;;5092615;28;20611;-71
2023/04/08 00:37:46;;;;;;;32.23;20.97;;;10.50;99.90;;;;;;5092685;28;20657;-70
2023/04/08 00:40:15;;;;;;;28.83;18.87;;;10.50;99.90;;;;;;5092559;28;20198;-72
2023/04/08 00:42:45;;;;;;;32.53;18.43;;;10.50;99.90;;;;;;5092640;28;20570;-70
2023/04/08 00:45:14;;;;;;;32.90;19.60;;;10.50;99.90;;;;;;5092686;28;20198;-71
2023/04/08 00:47:42;;;;;;;30.87;18.97;;;10.50;99.90;;;;;;5088109;28;20641;-71
2023/04/08 00:50:11;;;;;;;33.27;19.70;;;10.50;99.90;;;;;;5072140;28;20289;-72
2023/04/08 00:52:40;;;;;;;30.77;20.67;;;10.50;99.90;;;;;;5070835;28;20207;-71
2023/04/08 00:55:08;;;;;;;34.93;21.00;;;10.50;99.90;;;;;;5072067;28;20202;-71
2023/04/08 00:57:37;;;;;;;28.73;21.53;;;10.50;99.90;;;;;;5070877;28;20676;-71
2023/04/08 01:00:08;;;;;;;34.53;22.97;;;10.60;99.90;;;;;;5072007;28;20207;-70
2023/04/08 01:02:43;;;;;;;33.73;21.67;;;10.50;99.90;;;;;;5072032;28;20235;-70
2023/04/08 01:05:15;;;;;;;34.73;23.27;;;10.40;99.90;;;;;;5072033;28;20207;-70
2023/04/08 01:07:47;;;;;;;36.20;22.10;;;10.30;99.90;;;;;;5071950;28;20203;-72
2023/04/08 01:10:20;;;;;;;32.90;20.67;;;10.40;99.90;;;;;;5071786;28;20264;-72
2023/04/08 01:12:53;;;;;;;31.87;20.67;;;10.40;99.90;;;;;;5070557;28;20214;-72
2023/04/08 01:15:25;;;;;;;26.97;18.87;;;10.40;99.90;;;;;;5070498;28;20593;-71
2023/04/08 01:17:56;;;;;;;33.40;17.83;;;10.30;99.90;;;;;;5071484;28;20693;-68
2023/04/08 01:20:27;;;;;;;26.93;17.93;;;10.40;99.90;;;;;;5072033;28;20618;-71
2023/04/08 01:23:09;;;;;;;34.10;16.80;;;10.40;99.90;;;;;;5071613;28;20275;-71
2023/04/08 01:25:39;;;;;;;29.43;19.27;;;10.40;99.90;;;;;;5071769;28;20230;-72
2023/04/08 01:28:12;;;;;;;29.83;19.33;;;10.50;99.90;;;;;;5070691;28;20257;-72
2023/04/08 01:30:41;;;;;;;28.43;19.13;;;10.50;99.90;;;;;;5071606;28;20218;-73
2023/04/08 01:33:12;;;;;;;31.13;19.60;;;10.50;99.90;;;;;;5071645;28;20670;-71
2023/04/08 01:35:41;;;;;;;30.17;20.33;;;10.50;99.90;;;;;;5071668;28;20226;-72
2023/04/08 01:38:14;;;;;;;34.47;20.73;;;10.50;99.90;;;;;;5071647;28;20595;-68
2023/04/08 01:40:43;;;;;;;30.17;19.07;;;10.50;99.90;;;;;;5070354;28;20216;-71
2023/04/08 01:43:14;;;;;;;30.37;19.67;;;10.50;99.90;;;;;;5071529;28;20200;-72
2023/04/08 01:45:45;;;;;;;29.57;18.53;;;10.50;99.90;;;;;;5070262;28;20353;-72
2023/04/08 01:48:15;;;;;;;26.70;19.27;;;10.50;99.90;;;;;;5071405;28;20236;-73
2023/04/08 01:50:45;;;;;;;26.93;17.93;;;10.50;99.90;;;;;;5071565;28;20301;-71
2023/04/08 01:53:14;;;;;;;28.20;18.63;;;10.40;99.90;;;;;;5070138;28;20287;-72
2023/04/08 01:55:46;;;;;;;27.87;18.87;;;10.30;99.90;;;;;;5071207;28;20196;-72
2023/04/08 01:58:20;;;;;;;27.67;18.50;;;10.30;99.90;;;;;;5070178;28;20200;-73
2023/04/08 02:00:50;;;;;;;31.93;18.90;;;10.30;99.90;;;;;;5070035;28;20234;-72
2023/04/08 02:03:20;;;;;;;29.23;18.90;;;10.30;99.90;;;;;;5071484;28;20196;-72
2023/04/08 02:05:49;;;;;;;26.00;18.57;;;10.30;99.90;;;;;;5071298;28;20553;-71
2023/04/08 02:08:17;;;;;;;30.23;18.07;;;10.30;99.90;;;;;;5071347;28;20194;-73
2023/04/08 02:10:46;;;;;;;26.23;18.20;;;10.40;99.90;;;;;;5069903;28;20237;-72
2023/04/08 02:13:16;;;;;;;27.40;17.47;;;10.40;99.90;;;;;;5070000;28;20257;-74
2023/04/08 02:15:57;;;;;;;26.57;17.83;;;10.50;99.90;;;;;;5070227;28;20208;-73
2023/04/08 02:18:27;;;;;;;25.60;17.93;;;10.50;99.90;;;;;;5071271;28;20275;-73
2023/04/08 02:21:01;;;;;;;28.67;19.00;;;10.50;99.90;;;;;;5071490;28;20287;-73
2023/04/08 02:23:35;;;;;;;34.00;19.03;;;10.50;99.90;;;;;;5071518;28;20289;-73
2023/04/08 02:26:06;;;;;;;31.07;19.33;;;10.50;99.90;;;;;;5071516;28;20224;-74
2023/04/08 02:28:36;;;;;;;27.87;18.13;;;10.50;99.90;;;;;;5071444;28;20212;-71
2023/04/08 02:31:08;;;;;;;28.77;18.70;;;10.50;99.90;;;;;;5071412;28;20227;-73
2023/04/08 02:33:38;;;;;;;27.27;18.23;;;10.50;99.90;;;;;;5071622;28;20203;-73
2023/04/08 02:36:08;;;;;;;27.10;18.27;;;10.50;99.90;;;;;;5073967;28;20207;-72
2023/04/08 02:38:37;;;;;;;30.13;18.17;;;10.50;99.90;;;;;;5075063;28;20196;-68
2023/04/08 02:41:05;;;;;;;32.13;19.30;;;10.50;99.90;;;;;;5074835;28;20204;-69
2023/04/08 02:43:35;;;;;;;29.47;19.33;;;10.50;99.90;;;;;;5073716;28;20211;-67
2023/04/08 02:46:07;;;;;;;29.93;19.00;;;10.50;99.90;;;;;;5073435;28;20203;-68
2023/04/08 02:48:36;;;;;;;24.37;18.17;;;10.50;99.90;;;;;;5073048;28;20238;-67
2023/04/08 02:51:05;;;;;;;26.57;16.87;;;10.50;99.90;;;;;;5080526;28;20287;-68
2023/04/08 02:53:34;;;;;;;29.87;18.30;;;10.50;99.90;;;;;;5093425;28;20201;-68
2023/04/08 02:56:02;;;;;;;26.03;17.50;;;10.40;99.90;;;;;;5093481;28;20208;-68
2023/04/08 02:58:31;;;;;;;27.60;17.00;;;10.40;99.90;;;;;;5094926;28;20227;-69
2023/04/08 03:01:00;;;;;;;28.50;17.27;;;10.30;99.90;;;;;;5094627;28;20210;-69
2023/04/08 03:03:30;;;;;;;24.53;16.97;;;10.20;99.90;;;;;;5094804;28;20202;-69
2023/04/08 03:05:59;;;;;;;27.40;16.93;;;10.30;99.90;;;;;;5094575;28;20194;-69
2023/04/08 03:08:27;;;;;;;24.37;18.57;;;10.30;99.90;;;;;;5093735;28;20202;-68
2023/04/08 03:10:56;;;;;;;31.17;18.87;;;10.40;99.90;;;;;;5094255;28;20294;-67
2023/04/08 03:13:24;;;;;;;27.00;17.00;;;10.50;99.90;;;;;;5094344;28;20203;-70
2023/04/08 03:15:53;;;;;;;24.67;18.03;;;10.50;99.90;;;;;;5094202;28;20672;-69
2023/04/08 03:18:22;;;;;;;27.60;20.13;;;10.50;99.90;;;;;;5094096;28;20200;-71
2023/04/08 03:20:51;;;;;;;27.07;18.03;;;10.50;99.90;;;;;;5094169;28;20199;-68
2023/04/08 03:23:19;;;;;;;28.17;18.10;;;10.50;99.90;;;;;;5092405;28;20205;-68
2023/04/08 03:25:48;;;;;;;26.67;18.23;;;10.50;99.90;;;;;;5081384;28;20199;-68
2023/04/08 03:28:16;;;;;;;27.73;18.37;;;10.50;99.90;;;;;;5073700;28;20234;-66
2023/04/08 03:30:45;;;;;;;25.10;17.07;;;10.50;99.90;;;;;;5092836;28;20220;-68
2023/04/08 03:33:13;;;;;;;26.53;18.83;;;10.50;99.90;;;;;;5093855;28;20219;-68
2023/04/08 03:35:43;;;;;;;27.23;18.03;;;10.40;99.90;;;;;;5093838;28;20240;-68
2023/04/08 03:38:11;;;;;;;23.50;16.87;;;10.40;99.90;;;;;;5093989;28;20228;-67
2023/04/08 03:40:40;;;;;;;27.87;17.10;;;10.30;99.90;;;;;;5093736;28;20227;-68
2023/04/08 03:43:10;;;;;;;26.87;17.47;;;10.30;99.90;;;;;;5093808;28;20271;-67
2023/04/08 03:45:39;;;;;;;28.30;16.60;;;10.30;99.90;;;;;;5093806;28;20695;-68
2023/04/08 03:48:07;;;;;;;27.20;17.70;;;10.30;99.90;;;;;;5093291;28;20653;-68
2023/04/08 03:50:36;;;;;;;29.17;18.03;;;10.30;99.90;;;;;;5091689;28;20238;-69
2023/04/08 03:53:06;;;;;;;27.03;17.87;;;10.30;99.90;;;;;;5093640;28;20717;-69
2023/04/08 03:55:34;;;;;;;22.87;17.17;;;10.30;99.90;;;;;;5090440;28;20562;-68
2023/04/08 03:58:03;;;;;;;24.90;17.10;;;10.40;99.90;;;;;;5091814;28;20210;-69
2023/04/08 04:00:31;;;;;;;26.57;18.90;;;10.40;99.90;;;;;;5092785;28;20208;-69
2023/04/08 04:03:00;;;;;;;31.20;20.70;;;10.50;99.90;;;;;;5092690;28;20688;-69
2023/04/08 04:05:28;;;;;;;28.37;19.80;;;10.50;99.90;;;;;;5092628;28;20200;-68
2023/04/08 04:07:57;;;;;;;29.77;19.10;;;10.40;99.90;;;;;;5092977;28;20196;-69
2023/04/08 04:10:27;;;;;;;29.83;19.43;;;10.40;99.90;;;;;;5093277;28;20222;-68
2023/04/08 04:12:55;;;;;;;34.77;21.20;;;10.40;99.90;;;;;;5093223;28;20203;-70
2023/04/08 04:15:24;;;;;;;28.00;19.43;;;10.40;99.90;;;;;;5093270;28;20221;-68
2023/04/08 04:17:52;;;;;;;30.13;20.00;;;10.50;99.90;;;;;;5093068;28;20544;-70
2023/04/08 04:20:21;;;;;;;28.80;20.40;;;10.40;99.90;;;;;;5092992;28;20244;-69
2023/04/08 04:22:49;;;;;;;29.33;20.13;;;10.40;99.90;;;;;;5092928;28;20531;-70
2023/04/08 04:25:18;;;;;;;31.83;20.80;;;10.50;99.90;;;;;;5092909;28;20197;-69
2023/04/08 04:27:48;;;;;;;33.47;20.00;;;10.40;99.90;;;;;;5093037;28;20206;-68
2023/04/08 04:30:18;;;;;;;28.57;19.40;;;10.50;99.90;;;;;;5092861;28;20227;-67
2023/04/08 04:32:46;;;;;;;29.87;20.30;;;10.40;99.90;;;;;;5092767;28;20211;-71
2023/04/08 04:35:15;;;;;;;29.10;18.10;;;10.40;99.90;;;;;;5092604;28;20202;-67
2023/04/08 04:37:43;;;;;;;29.10;18.70;;;10.30;99.90;;;;;;5092618;28;20574;-68
2023/04/08 04:40:12;;;;;;;30.10;19.00;;;10.30;99.90;;;;;;5092823;28;20233;-68
2023/04/08 04:42:40;;;;;;;27.97;19.30;;;10.30;99.90;;;;;;5092593;28;20200;-68
2023/04/08 04:45:11;;;;;;;24.87;17.83;;;10.30;99.90;;;;;;5092659;28;20194;-67
2023/04/08 04:47:39;;;;;;;29.13;18.77;;;10.30;99.90;;;;;;5092245;28;20227;-67
2023/04/08 04:50:09;;;;;;;29.90;19.60;;;10.40;99.90;;;;;;5092535;28;20201;-68
2023/04/08 04:52:37;;;;;;;31.07;20.03;;;10.40;99.90;;;;;;5092301;28;20221;-71
2023/04/08 04:55:07;;;;;;;28.30;19.73;;;10.50;99.90;;;;;;5092504;28;20205;-69
2023/04/08 04:57:35;;;;;;;34.13;21.13;;;10.50;99.90;;;;;;5091814;28;20191;-68
2023/04/08 05:00:04;;;;;;;27.97;19.03;;;10.50;99.90;;;;;;5092428;28;20200;-68
2023/04/08 05:02:34;;;;;;;26.80;18.73;;;10.50;99.90;;;;;;5092409;28;20234;-69
2023/04/08 05:05:03;;;;;;;26.27;20.17;;;10.60;99.90;;;;;;5092242;28;20744;-69
2023/04/08 05:07:32;;;;;;;30.70;19.97;;;10.60;99.90;;;;;;5092468;28;20601;-67
2023/04/08 05:10:00;;;;;;;31.50;18.83;;;10.50;99.90;;;;;;5092272;28;20185;-69
2023/04/08 05:12:29;;;;;;;25.97;19.50;;;10.50;99.90;;;;;;5091974;28;20706;-68
2023/04/08 05:14:58;;;;;;;26.03;18.80;;;10.60;99.90;;;;;;5092140;28;20584;-68
2023/04/08 05:17:27;;;;;;;27.07;20.73;;;10.60;99.90;;;;;;5091924;28;20259;-69
2023/04/08 05:19:57;;;;;;;41.33;26.27;;;10.60;99.90;;;;;;5092231;28;20286;-68
2023/04/08 05:22:25;;;;;;;53.30;34.90;;;10.60;99.90;;;;;;5091916;28;20200;-69
2023/04/08 05:24:54;;;;;;;55.00;37.73;;;10.60;99.90;;;;;;5090624;28;20210;-70
2023/04/08 05:27:22;;;;;;;65.27;40.47;;;10.60;99.90;;;;;;5091632;28;20209;-68
2023/04/08 05:29:51;;;;;;;56.13;35.83;;;10.60;99.90;;;;;;5091781;28;20204;-68
2023/04/08 05:32:19;;;;;;;48.17;32.70;;;10.60;99.90;;;;;;5091633;28;20254;-69
2023/04/08 05:34:48;;;;;;;47.27;31.60;;;10.60;99.90;;;;;;5091720;28;20199;-72
2023/04/08 05:37:18;;;;;;;48.37;31.97;;;10.60;99.90;;;;;;5091814;28;20566;-71
2023/04/08 05:39:46;;;;;;;50.00;33.10;;;10.70;99.90;;;;;;5091827;28;20322;-68
2023/04/08 05:42:15;;;;;;;49.87;34.23;;;10.70;99.90;;;;;;5091636;28;20251;-70
2023/04/08 05:44:43;;;;;;;51.60;33.93;;;10.70;99.90;;;;;;5091656;28;20201;-69
2023/04/08 05:47:13;;;;;;;43.10;30.93;;;10.70;99.90;;;;;;5091642;28;20230;-71
2023/04/08 05:49:42;;;;;;;42.50;28.73;;;10.70;99.90;;;;;;5091490;28;20237;-69
2023/04/08 05:52:10;;;;;;;34.57;24.37;;;10.70;99.90;;;;;;5091482;28;20232;-70
2023/04/08 05:54:43;;;;;;;35.33;26.40;;;10.80;99.90;;;;;;5091539;28;20257;-70
2023/04/08 05:57:12;;;;;;;33.53;23.13;;;10.80;99.90;;;;;;5091440;28;20581;-72
2023/04/08 05:59:40;;;;;;;33.77;25.90;;;10.80;99.90;;;;;;5091940;28;20736;-71
2023/04/08 06:02:08;;;;;;;38.10;23.60;;;10.80;99.90;;;;;;5091448;28;20569;-72
2023/04/08 06:04:37;;;;;;;36.20;22.30;;;10.80;99.90;;;;;;5091470;28;20226;-69
2023/04/08 06:07:07;;;;;;;33.00;23.03;;;10.80;99.90;;;;;;5091536;28;20324;-70
2023/04/08 06:09:36;;;;;;;34.27;22.07;;;10.90;99.90;;;;;;5093437;28;20234;-69
2023/04/08 06:12:06;;;;;;;36.63;22.63;;;10.80;99.90;;;;;;5095382;28;20211;-72
2023/04/08 06:14:35;;;;;;;30.50;23.17;;;10.90;99.90;;;;;;5095763;28;20212;-72
2023/04/08 06:17:04;;;;;;;35.20;24.20;;;10.90;99.90;;;;;;5095473;28;20199;-69
2023/04/08 06:19:33;;;;;;;37.00;26.07;;;11.00;99.90;;;;;;5094283;28;20262;-71
2023/04/08 06:22:01;;;;;;;37.30;26.10;;;11.00;99.90;;;;;;5095299;28;20199;-73
2023/04/08 06:24:29;;;;;;;38.63;27.53;;;11.00;99.90;;;;;;5095350;28;20274;-70
2023/04/08 06:26:58;;;;;;;41.60;28.50;;;11.00;99.90;;;;;;5095201;28;20195;-72
2023/04/08 06:29:28;;;;;;;46.97;30.50;;;11.00;99.90;;;;;;5095285;28;20212;-71
2023/04/08 06:31:57;;;;;;;45.23;31.53;;;11.10;99.90;;;;;;5094956;28;20222;-72
2023/04/08 06:34:25;;;;;;;55.17;38.47;;;11.10;99.90;;;;;;5094986;28;20192;-69
2023/04/08 06:36:54;;;;;;;53.40;37.60;;;11.10;99.90;;;;;;5095045;28;20303;-71
2023/04/08 06:39:22;;;;;;;57.57;38.07;;;11.10;99.90;;;;;;5094982;28;20198;-71
2023/04/08 06:41:51;;;;;;;47.20;32.90;;;11.20;99.90;;;;;;5094793;28;20210;-70
2023/04/08 06:44:34;;;;;;;52.03;34.80;;;11.20;99.90;;;;;;5093797;28;20203;-69
2023/04/08 06:47:02;;;;;;;56.43;35.63;;;11.20;99.90;;;;;;5094786;28;20584;-71
2023/04/08 06:49:31;;;;;;;50.97;33.47;;;11.20;99.90;;;;;;5094914;28;20551;-69
2023/04/08 06:51:59;;;;;;;43.93;29.20;;;11.30;99.90;;;;;;5094616;28;20219;-71
2023/04/08 06:54:28;;;;;;;40.23;26.33;;;11.30;99.90;;;;;;5095055;28;20222;-68
2023/04/08 06:56:56;;;;;;;34.50;25.47;;;11.40;99.90;;;;;;5094772;28;20203;-70
2023/04/08 06:59:25;;;;;;;41.00;24.47;;;11.40;99.90;;;;;;5094643;28;20207;-69
2023/04/08 07:01:55;;;;;;;35.50;25.10;;;11.50;99.90;;;;;;5094605;28;20677;-71
2023/04/08 07:04:23;;;;;;;37.63;24.93;;;11.50;99.90;;;;;;5094594;28;20195;-71
2023/04/08 07:06:52;;;;;;;30.80;21.83;;;11.50;99.90;;;;;;5094383;28;20181;-69
2023/04/08 07:09:20;;;;;;;33.30;22.97;;;11.60;99.90;;;;;;5094269;28;20207;-71
2023/04/08 07:11:49;;;;;;;32.60;23.07;;;11.60;99.90;;;;;;5094036;28;20207;-71
2023/04/08 07:14:18;;;;;;;68.27;48.10;;;11.70;99.90;;;;;;5094363;28;20271;-70
2023/04/08 07:16:46;;;;;;;33.60;23.43;;;11.70;99.90;;;;;;5094369;28;20202;-71
2023/04/08 07:19:16;;;;;;;60.30;39.13;;;11.70;99.90;;;;;;5093880;28;20695;-71
2023/04/08 07:21:45;;;;;;;32.20;22.97;;;11.80;99.90;;;;;;5094096;28;20196;-68
2023/04/08 07:24:14;;;;;;;30.03;22.07;;;11.80;99.90;;;;;;5094206;28;20191;-71
2023/04/08 07:26:43;;;;;;;28.50;20.57;;;11.90;99.90;;;;;;5092925;28;20655;-72
2023/04/08 07:29:12;;;;;;;28.97;21.30;;;11.90;99.90;;;;;;5093980;28;20195;-73
2023/04/08 07:31:40;;;;;;;26.77;19.97;;;12.00;99.90;;;;;;5093961;28;20218;-72
2023/04/08 07:34:09;;;;;;;33.13;23.07;;;12.00;99.90;;;;;;5092643;28;20203;-71
2023/04/08 07:36:39;;;;;;;36.70;24.40;;;12.00;99.90;;;;;;5093994;28;20196;-70
2023/04/08 07:39:08;;;;;;;34.47;24.80;;;12.10;99.90;;;;;;5093935;28;20234;-73
2023/04/08 07:41:36;;;;;;;37.40;24.43;;;12.10;99.90;;;;;;5093715;28;20226;-71
2023/04/08 07:44:05;;;;;;;36.27;24.90;;;12.20;99.90;;;;;;5093905;28;20226;-69
2023/04/08 07:46:37;;;;;;;32.30;24.40;;;12.20;99.90;;;;;;5093533;28;20200;-71
2023/04/08 07:49:05;;;;;;;35.80;25.73;;;12.20;99.90;;;;;;5093781;28;20199;-69
2023/04/08 07:51:34;;;;;;;34.30;24.00;;;12.20;99.90;;;;;;5093831;28;20614;-72
2023/04/08 07:54:04;;;;;;;32.60;21.90;;;12.30;99.90;;;;;;5093618;28;20223;-72
2023/04/08 07:56:32;;;;;;;38.57;25.37;;;12.30;99.90;;;;;;5093549;28;20666;-73
2023/04/08 07:59:00;;;;;;;33.20;24.33;;;12.40;99.90;;;;;;5093736;28;20270;-71
2023/04/08 08:01:30;;;;;;;35.23;24.23;;;12.40;99.90;;;;;;5093399;28;20208;-72
2023/04/08 08:03:58;;;;;;;35.57;25.73;;;12.40;99.90;;;;;;5093267;28;20690;-70
2023/04/08 08:06:27;;;;;;;38.30;25.67;;;12.40;99.90;;;;;;5093364;28;20211;-71
2023/04/08 08:08:56;;;;;;;39.63;26.03;;;12.40;99.90;;;;;;5093330;28;20197;-70
2023/04/08 08:11:26;;;;;;;35.40;25.60;;;12.50;99.90;;;;;;5093600;28;20200;-71
2023/04/08 08:13:55;;;;;;;39.83;26.97;;;12.50;99.90;;;;;;5092891;28;20224;-72
2023/04/08 08:16:26;;;;;;;34.80;27.00;;;12.50;99.90;;;;;;5093079;28;20195;-72
2023/04/08 08:18:54;;;;;;;36.27;25.73;;;12.50;99.90;;;;;;5092875;28;20233;-67
2023/04/08 08:21:23;;;;;;;36.53;25.57;;;12.50;99.90;;;;;;5092850;28;20199;-70
2023/04/08 08:23:53;;;;;;;37.23;25.27;;;12.60;99.90;;;;;;5092930;28;20204;-70
2023/04/08 08:26:21;;;;;;;32.60;23.33;;;12.60;99.90;;;;;;5091580;28;20628;-69
2023/04/08 08:28:51;;;;;;;31.67;23.80;;;12.60;99.90;;;;;;5093051;28;20200;-69
2023/04/08 08:31:20;;;;;;;36.43;23.90;;;12.60;99.90;;;;;;5091920;28;20271;-68
2023/04/08 08:33:48;;;;;;;35.57;23.30;;;12.60;99.90;;;;;;5092643;28;20216;-70
2023/04/08 08:36:17;;;;;;;34.77;23.10;;;12.70;99.90;;;;;;5092716;28;20196;-70
2023/04/08 08:38:45;;;;;;;36.00;23.37;;;12.70;99.90;;;;;;5092627;28;20199;-69
2023/04/08 08:41:14;;;;;;;42.37;26.33;;;12.70;99.90;;;;;;5092632;28;20216;-69
2023/04/08 08:43:43;;;;;;;57.43;37.93;;;12.70;99.90;;;;;;5092577;28;20220;-70
2023/04/08 08:46:17;;;;;;;39.73;27.83;;;12.80;99.90;;;;;;5092472;28;20192;-71
2023/04/08 08:48:46;;;;;;;64.57;43.40;;;12.80;99.90;;;;;;5092222;28;20235;-71
2023/04/08 08:51:14;;;;;;;48.73;31.83;;;12.90;99.90;;;;;;5092451;28;20207;-71
2023/04/08 08:53:44;;;;;;;55.73;33.93;;;12.90;99.90;;;;;;5090931;28;20228;-71
2023/04/08 08:56:12;;;;;;;46.97;32.17;;;12.90;99.90;;;;;;5092546;28;20614;-71
2023/04/08 08:58:46;;;;;;;34.07;23.17;;;13.00;99.90;;;;;;5092231;28;20208;-71
2023/04/08 09:01:44;;;;;;;37.13;24.40;;;13.10;99.90;;;;;;5092325;28;20208;-71
2023/04/08 09:04:15;;;;;;;38.10;24.77;;;13.00;99.90;;;;;;5029733;28;20785;-70
2023/04/08 09:06:45;;;;;;;38.20;27.40;;;13.10;99.90;;;;;;5029753;28;20218;-71
2023/04/08 09:09:14;;;;;;;34.57;22.97;;;13.10;99.90;;;;;;5029844;28;20206;-71
2023/04/08 09:11:44;;;;;;;33.90;24.27;;;13.10;99.90;;;;;;5029573;28;20199;-69
2023/04/08 09:14:21;;;;;;;33.17;24.60;;;13.10;99.90;;;;;;5029494;28;20300;-70
2023/04/08 09:16:51;;;;;;;64.53;46.53;;;13.10;99.90;;;;;;5029619;28;20212;-70
2023/04/08 09:19:20;;;;;;;227.60;123.80;;;13.10;99.90;;;;;;5029550;28;20210;-71
2023/04/08 09:22:07;;;;;;;136.23;81.57;;;13.20;99.90;;;;;;5029540;28;20213;-70
2023/04/08 09:24:36;;;;;;;67.13;40.77;;;13.30;99.90;;;;;;5029755;28;20211;-71
2023/04/08 09:27:05;;;;;;;57.73;38.30;;;13.30;99.90;;;;;;5029409;28;20216;-72
2023/04/08 09:29:34;;;;;;;55.77;35.70;;;13.30;99.90;;;;;;5029448;28;20195;-71
2023/04/08 09:32:07;;;;;;;56.40;34.13;;;13.30;99.90;;;;;;5029618;28;20198;-70
2023/04/08 09:34:35;;;;;;;35.90;23.93;;;13.30;99.90;;;;;;5029455;28;20296;-71
2023/04/08 09:37:04;;;;;;;35.37;23.00;;;13.30;99.90;;;;;;5029517;28;20206;-71
2023/04/08 09:39:32;;;;;;;35.27;23.97;;;13.30;99.90;;;;;;5047371;28;20204;-71
2023/04/08 09:42:05;;;;;;;34.47;22.37;;;13.30;99.90;;;;;;5091450;28;20695;-71
2023/04/08 09:44:35;;;;;;;34.83;23.23;;;13.30;99.90;;;;;;5091763;28;20197;-71
2023/04/08 09:47:16;;;;;;;31.93;22.47;;;13.30;99.90;;;;;;5091783;28;20592;-71
2023/04/08 09:49:50;;;;;;;38.13;21.97;;;13.30;99.90;;;;;;5091544;28;20220;-71
2023/04/08 09:52:24;;;;;;;32.07;22.40;;;13.30;99.90;;;;;;5091616;28;20244;-70
2023/04/08 09:54:57;;;;;;;29.20;21.93;;;13.30;99.90;;;;;;5090267;28;20594;-71
2023/04/08 09:57:32;;;;;;;31.73;22.80;;;13.30;99.90;;;;;;5091615;28;20609;-71
2023/04/08 10:00:08;;;;;;;37.83;23.10;;;13.40;99.90;;;;;;5090480;28;20203;-71
2023/04/08 10:02:55;;;;;;;35.60;23.10;;;13.40;99.90;;;;;;5091478;28;20196;-67
2023/04/08 10:05:25;;;;;;;34.63;23.93;;;13.50;99.90;;;;;;5091550;28;20210;-67
2023/04/08 10:07:55;;;;;;;35.77;25.30;;;13.50;99.90;;;;;;5091417;28;20196;-68
2023/04/08 10:10:25;;;;;;;36.47;24.83;;;13.50;99.90;;;;;;5091571;28;20193;-66
2023/04/08 10:12:55;;;;;;;27.43;20.63;;;13.60;99.90;;;;;;5091435;28;20523;-69
2023/04/08 10:15:27;;;;;;;32.00;20.00;;;13.70;99.90;;;;;;5091357;28;20224;-68
2023/04/08 10:18:35;;;;;;;27.90;20.43;;;13.70;99.90;;;;;;5091270;28;20204;-68
2023/04/08 10:21:04;;;;;;;28.27;20.70;;;13.70;99.90;;;;;;5091004;28;20544;-68
2023/04/08 10:23:57;;;;;;;30.57;20.30;;;13.80;99.90;;;;;;5091522;28;20228;-68
2023/04/08 10:26:32;;;;;;;29.97;20.33;;;13.90;99.90;;;;;;5091321;28;20198;-69
2023/04/08 10:29:30;;;;;;;29.80;19.83;;;13.90;99.90;;;;;;5091234;28;20234;-67
2023/04/08 10:32:00;;;;;;;29.80;21.77;;;14.00;99.90;;;;;;5091302;28;20553;-67
2023/04/08 10:34:30;;;;;;;30.97;20.57;;;14.00;99.90;;;;;;5091082;28;20293;-68
2023/04/08 10:37:02;;;;;;;30.10;21.80;;;14.00;99.90;;;;;;5091248;28;20670;-70
2023/04/08 10:39:31;;;;;;;29.40;20.53;;;14.00;99.90;;;;;;5091135;28;20217;-70
2023/04/08 10:42:02;;;;;;;30.03;20.07;;;14.10;99.90;;;;;;5089827;28;20604;-69
2023/04/08 10:44:31;;;;;;;28.00;21.27;;;14.10;99.90;;;;;;5091101;28;20265;-68
2023/04/08 10:47:00;;;;;;;33.17;22.43;;;14.00;99.40;;;;;;5090839;28;20229;-70
2023/04/08 10:49:35;;;;;;;34.70;21.53;;;14.00;99.80;;;;;;5091090;28;20566;-69
2023/04/08 10:52:08;;;;;;;29.10;21.53;;;14.00;99.90;;;;;;5091137;28;20215;-70
2023/04/08 10:54:38;;;;;;;35.37;22.60;;;14.00;99.90;;;;;;5091424;28;20223;-72
2023/04/08 10:57:07;;;;;;;34.30;20.53;;;14.00;99.90;;;;;;5094839;28;20227;-72
2023/04/08 10:59:35;;;;;;;32.47;21.47;;;14.10;99.90;;;;;;5094601;28;20198;-71
2023/04/08 11:02:04;;;;;;;30.27;20.27;;;14.10;99.90;;;;;;5094758;28;20192;-70
2023/04/08 11:04:34;;;;;;;35.70;23.03;;;14.20;99.90;;;;;;5094974;28;20220;-70
2023/04/08 11:07:07;;;;;;;35.30;22.40;;;14.30;99.90;;;;;;5094603;28;20204;-69
2023/04/08 11:09:36;;;;;;;30.13;21.77;;;14.40;99.90;;;;;;5094724;28;20210;-70
2023/04/08 11:12:05;;;;;;;34.00;21.67;;;14.50;99.90;;;;;;5094635;28;20325;-68
2023/04/08 11:14:33;;;;;;;34.53;23.43;;;14.60;99.90;;;;;;5094431;28;20224;-69
2023/04/08 11:17:04;;;;;;;29.57;20.57;;;14.70;99.90;;;;;;5094600;28;20283;-71
2023/04/08 11:19:38;;;;;;;27.63;21.90;;;14.80;99.90;;;;;;5094323;28;20197;-69
2023/04/08 11:22:08;;;;;;;34.83;22.93;;;15.00;99.90;;;;;;5094396;28;20196;-75
2023/04/08 11:24:37;;;;;;;31.93;21.77;;;15.30;99.90;;;;;;5094361;28;20241;-74
2023/04/08 11:27:06;;;;;;;34.00;22.30;;;15.60;99.90;;;;;;5094181;28;20204;-75
2023/04/08 11:29:34;;;;;;;30.30;21.43;;;16.10;99.90;;;;;;5092878;28;20236;-71
2023/04/08 11:32:03;;;;;;;26.97;19.87;;;16.40;98.40;;;;;;5094161;28;20194;-73
2023/04/08 11:34:32;;;;;;;28.23;20.07;;;16.50;97.20;;;;;;5094079;28;20202;-68
2023/04/08 11:37:02;;;;;;;36.80;21.60;;;16.80;99.90;;;;;;5094022;28;20251;-69
2023/04/08 11:39:30;;;;;;;28.07;20.87;;;17.00;95.60;;;;;;5093755;28;20750;-71
2023/04/08 11:41:59;;;;;;;32.90;21.97;;;17.00;92.70;;;;;;5093793;28;20704;-74
2023/04/08 11:44:31;;;;;;;32.80;22.67;;;17.00;91.40;;;;;;5093493;28;20310;-70
2023/04/08 11:47:01;;;;;;;29.30;22.00;;;16.90;90.00;;;;;;5093721;28;20307;-71
2023/04/08 11:49:44;;;;;;;31.83;22.87;;;16.90;91.10;;;;;;5093741;28;20199;-67
2023/04/08 11:52:14;;;;;;;33.97;24.13;;;16.80;88.50;;;;;;5093519;28;20609;-74
2023/04/08 11:54:43;;;;;;;39.93;26.70;;;16.70;89.60;;;;;;5093524;28;20201;-70
2023/04/08 11:57:13;;;;;;;35.60;26.40;;;16.60;90.30;;;;;;5093543;28;20731;-70
2023/04/08 11:59:42;;;;;;;36.77;26.43;;;16.60;90.70;;;;;;5093482;28;20237;-69
2023/04/08 12:02:11;;;;;;;37.70;26.53;;;16.60;91.00;;;;;;5093840;28;20230;-69
2023/04/08 12:04:40;;;;;;;36.70;25.80;;;16.60;91.00;;;;;;5093191;28;20307;-72
2023/04/08 12:07:09;;;;;;;33.80;23.97;;;16.70;91.20;;;;;;5093222;28;20616;-69
2023/04/08 12:09:39;;;;;;;32.17;24.03;;;16.70;90.70;;;;;;5093511;28;20226;-71
2023/04/08 12:12:08;;;;;;;33.80;23.80;;;16.70;91.40;;;;;;5093296;28;20190;-75
2023/04/08 12:14:36;;;;;;;36.30;24.57;;;16.70;91.40;;;;;;5093285;28;20205;-69
2023/04/08 12:17:05;;;;;;;31.57;23.43;;;16.70;92.00;;;;;;5093299;28;20208;-70
2023/04/08 12:19:33;;;;;;;32.40;22.33;;;16.90;93.90;;;;;;5093135;28;20214;-70
2023/04/08 12:22:03;;;;;;;31.40;23.67;;;17.10;92.80;;;;;;5093450;28;20206;-74
2023/04/08 12:24:32;;;;;;;32.17;21.13;;;17.30;93.20;;;;;;5093019;28;20195;-69
2023/04/08 12:27:03;;;;;;;26.07;19.83;;;17.60;94.80;;;;;;5092932;28;20225;-68
2023/04/08 12:29:32;;;;;;;29.10;19.60;;;18.00;95.90;;;;;;5092982;28;20260;-71
2023/04/08 12:32:01;;;;;;;24.50;19.40;;;18.30;92.20;;;;;;5092835;28;20680;-72
2023/04/08 12:34:29;;;;;;;29.40;20.87;;;18.30;84.40;;;;;;5092879;28;20270;-70
2023/04/08 12:36:58;;;;;;;26.07;19.00;;;18.20;81.40;;;;;;5092849;28;20206;-72
2023/04/08 12:39:27;;;;;;;24.47;18.97;;;18.10;80.60;;;;;;5092781;28;20205;-73